Time;durP1;ratioP1;P1;durP2;ratioP2;P2;SDS_P1;SDS_P2;PMS_P1;PMS_P2;Temp;Humidity;BMP_temperature;BMP_pressure;BME280_temperature;BME280_humidity;BME280_pressure;Samples;Min_cycle;Max_cycle;Signal;HPM_P1;HPM_P2
2023/03/31 00:01:48;;;;;;;9.45;3.00;;;11.60;99.90;;;;;;5047706;28;20032;-42
2023/03/31 00:04:14;;;;;;;10.70;3.22;;;11.60;99.90;;;;;;5048337;28;20415;-41
2023/03/31 00:06:41;;;;;;;9.95;2.70;;;11.60;99.90;;;;;;5047842;28;20053;-41
2023/03/31 00:09:17;;;;;;;5.50;2.17;;;11.60;99.90;;;;;;5048714;28;20024;-41
2023/03/31 00:11:44;;;;;;;13.55;3.40;;;11.60;99.90;;;;;;5048430;28;20032;-41
2023/03/31 00:14:10;;;;;;;10.07;2.83;;;11.60;99.90;;;;;;5048632;28;20029;-40
2023/03/31 00:16:37;;;;;;;8.85;2.95;;;11.60;99.90;;;;;;5046923;28;20032;-41
2023/03/31 00:19:04;;;;;;;11.82;3.13;;;11.50;99.90;;;;;;5045989;28;20047;-41
2023/03/31 00:21:33;;;;;;;18.58;4.07;;;11.50;99.90;;;;;;5046942;28;20021;-41
2023/03/31 00:24:04;;;;;;;10.65;3.13;;;11.40;99.90;;;;;;5048379;28;20024;-40
2023/03/31 00:26:30;;;;;;;14.88;3.38;;;11.40;99.90;;;;;;5047819;28;20029;-40
2023/03/31 00:28:57;;;;;;;12.25;3.47;;;11.40;99.90;;;;;;5047053;28;20045;-40
2023/03/31 00:31:23;;;;;;;8.00;2.90;;;11.30;99.90;;;;;;5030845;28;20033;-40
2023/03/31 00:33:49;;;;;;;9.73;3.58;;;11.40;99.90;;;;;;5047557;28;20036;-41
2023/03/31 00:36:26;;;;;;;8.20;2.97;;;11.20;99.90;;;;;;5047834;28;20021;-40
2023/03/31 00:38:52;;;;;;;9.10;3.10;;;11.20;99.90;;;;;;5048008;28;20025;-40
2023/03/31 00:41:18;;;;;;;9.13;2.83;;;11.20;99.90;;;;;;5048494;28;20100;-41
2023/03/31 00:44:08;;;;;;;10.45;3.45;;;11.10;99.90;;;;;;5047083;28;20068;-40
2023/03/31 00:46:39;;;;;;;12.80;3.05;;;11.00;99.90;;;;;;5047655;28;20516;-41
2023/03/31 00:49:07;;;;;;;11.65;3.65;;;10.90;99.90;;;;;;5049338;28;20078;-42
2023/03/31 00:51:34;;;;;;;6.88;2.80;;;10.90;99.90;;;;;;5052050;28;20021;-42
2023/03/31 00:54:04;;;;;;;7.72;3.22;;;10.90;99.90;;;;;;5052091;28;20559;-41
2023/03/31 00:56:36;;;;;;;8.88;3.13;;;10.80;99.90;;;;;;5051874;28;20025;-41
2023/03/31 00:59:06;;;;;;;8.48;3.85;;;10.80;99.90;;;;;;5059177;28;20573;-41
2023/03/31 01:01:34;;;;;;;15.05;4.68;;;10.80;99.90;;;;;;5051622;28;20028;-41
2023/03/31 01:04:01;;;;;;;16.10;4.55;;;10.80;99.90;;;;;;5052013;28;20485;-41
2023/03/31 01:06:29;;;;;;;11.95;3.13;;;10.80;99.90;;;;;;5050508;28;20024;-41
2023/03/31 01:08:56;;;;;;;8.13;2.88;;;10.80;99.90;;;;;;5052042;28;20021;-42
2023/03/31 01:11:25;;;;;;;13.23;3.35;;;10.90;99.90;;;;;;5051929;28;20225;-41
2023/03/31 01:13:54;;;;;;;6.85;2.58;;;10.90;99.90;;;;;;5052024;28;20052;-41
2023/03/31 01:16:20;;;;;;;8.00;2.80;;;10.90;99.90;;;;;;5051511;28;20032;-41
2023/03/31 01:18:48;;;;;;;17.08;3.85;;;10.90;99.90;;;;;;5051559;28;20063;-42
2023/03/31 01:21:38;;;;;;;7.28;3.13;;;10.90;99.90;;;;;;5051741;28;20025;-43
2023/03/31 01:24:12;;;;;;;6.75;2.70;;;10.90;99.90;;;;;;5046110;28;20052;-41
2023/03/31 01:27:14;;;;;;;10.10;3.35;;;11.00;99.90;;;;;;5043505;28;20021;-41
2023/03/31 01:30:09;;;;;;;9.48;2.58;;;11.00;99.90;;;;;;5043578;28;20470;-41
2023/03/31 01:33:16;;;;;;;12.90;3.80;;;11.00;99.90;;;;;;5044462;28;20022;-41
2023/03/31 01:36:15;;;;;;;12.82;2.85;;;11.10;99.90;;;;;;5043698;28;20068;-40
2023/03/31 01:39:10;;;;;;;8.65;2.65;;;11.00;99.90;;;;;;5044743;28;20030;-41
2023/03/31 01:41:53;;;;;;;4.78;2.55;;;11.10;99.90;;;;;;5042601;28;20036;-41
2023/03/31 01:44:56;;;;;;;9.73;2.65;;;11.00;99.90;;;;;;5042199;28;20026;-43
2023/03/31 01:47:40;;;;;;;6.47;2.50;;;11.10;99.90;;;;;;5042360;28;20720;-40
2023/03/31 01:50:09;;;;;;;4.88;2.20;;;11.10;99.90;;;;;;5043569;28;20045;-41
2023/03/31 01:52:47;;;;;;;9.97;2.87;;;11.10;99.90;;;;;;5049641;28;20028;-41
2023/03/31 01:55:24;;;;;;;4.10;1.88;;;11.10;99.90;;;;;;5042377;28;20725;-43
2023/03/31 01:57:58;;;;;;;10.40;2.58;;;11.20;99.90;;;;;;5045146;28;20478;-40
2023/03/31 02:00:32;;;;;;;7.55;2.40;;;11.20;99.90;;;;;;5043299;28;20074;-41
2023/03/31 02:03:04;;;;;;;11.57;2.58;;;11.20;99.90;;;;;;5046940;28;20040;-41
2023/03/31 02:05:39;;;;;;;9.52;2.28;;;11.20;99.90;;;;;;5044393;28;20051;-41
2023/03/31 02:08:13;;;;;;;6.78;2.10;;;11.20;99.90;;;;;;5049291;28;20032;-40
2023/03/31 02:10:42;;;;;;;9.15;2.15;;;11.20;99.90;;;;;;5050817;28;20025;-40
2023/03/31 02:13:10;;;;;;;5.88;2.40;;;11.20;99.90;;;;;;5050357;28;20413;-41
2023/03/31 02:15:43;;;;;;;9.32;2.70;;;11.20;99.90;;;;;;5050045;28;20021;-40
2023/03/31 02:18:12;;;;;;;8.38;1.98;;;11.20;99.90;;;;;;5055352;28;20112;-41
2023/03/31 02:20:40;;;;;;;9.00;2.28;;;11.20;99.90;;;;;;5053297;28;20040;-41
2023/03/31 02:23:07;;;;;;;9.63;3.00;;;11.20;99.90;;;;;;5050727;28;20024;-40
2023/03/31 02:25:39;;;;;;;6.50;1.95;;;11.20;99.90;;;;;;5050232;28;20029;-40
2023/03/31 02:28:10;;;;;;;11.18;3.53;;;11.20;99.90;;;;;;5049808;28;20025;-41
2023/03/31 02:31:06;;;;;;;5.95;2.50;;;11.10;99.90;;;;;;5050316;28;20044;-41
2023/03/31 02:33:32;;;;;;;8.57;2.60;;;11.20;99.90;;;;;;5050355;28;20474;-41
2023/03/31 02:35:59;;;;;;;10.05;2.70;;;11.20;99.90;;;;;;5048561;28;20028;-42
2023/03/31 02:38:25;;;;;;;4.05;1.60;;;11.20;99.90;;;;;;5049623;28;20063;-41
2023/03/31 02:40:50;;;;;;;5.68;2.25;;;11.20;99.90;;;;;;5049980;28;20029;-42
2023/03/31 02:43:16;;;;;;;5.25;1.85;;;11.20;99.90;;;;;;5048637;28;20036;-41
2023/03/31 02:45:46;;;;;;;4.75;2.50;;;11.30;99.90;;;;;;5049065;28;20123;-40
2023/03/31 02:48:15;;;;;;;4.60;2.27;;;11.20;99.90;;;;;;5041295;28;20104;-41
2023/03/31 02:51:18;;;;;;;5.97;2.08;;;11.10;99.90;;;;;;5041952;28;20017;-42
2023/03/31 02:53:46;;;;;;;7.43;1.88;;;11.10;99.90;;;;;;5042301;28;20021;-41
2023/03/31 02:56:46;;;;;;;8.60;2.38;;;11.00;99.90;;;;;;5049548;28;20025;-42
2023/03/31 02:59:36;;;;;;;7.40;2.50;;;11.00;99.90;;;;;;5038499;28;20432;-42
2023/03/31 03:02:13;;;;;;;10.43;1.90;;;11.00;99.90;;;;;;5048968;28;20389;-41
2023/03/31 03:05:08;;;;;;;6.55;2.00;;;11.00;99.90;;;;;;5049346;28;20344;-42
2023/03/31 03:07:42;;;;;;;6.65;2.33;;;10.90;99.90;;;;;;5049215;28;20028;-41
2023/03/31 03:10:16;;;;;;;6.43;1.60;;;10.80;99.90;;;;;;5049039;28;20079;-41
2023/03/31 03:12:59;;;;;;;7.47;1.90;;;10.70;99.90;;;;;;5048607;28;20188;-41
2023/03/31 03:15:33;;;;;;;7.38;2.25;;;10.70;99.90;;;;;;5049324;28;20021;-44
2023/03/31 03:17:59;;;;;;;5.75;2.25;;;10.60;99.90;;;;;;5048712;28;20642;-42
2023/03/31 03:20:24;;;;;;;6.63;2.55;;;10.60;99.90;;;;;;5049727;28;20122;-41
2023/03/31 03:22:50;;;;;;;5.32;2.30;;;10.60;99.90;;;;;;5049309;28;20017;-41
2023/03/31 03:25:16;;;;;;;8.85;2.40;;;10.50;99.90;;;;;;5049441;28;20471;-41
2023/03/31 03:27:42;;;;;;;9.98;2.30;;;10.50;99.90;;;;;;5048380;28;20013;-42
2023/03/31 03:30:10;;;;;;;9.20;2.60;;;10.40;99.90;;;;;;5049296;28;20017;-42
2023/03/31 03:32:36;;;;;;;6.80;2.45;;;10.40;99.90;;;;;;5048968;28;20025;-42
2023/03/31 03:35:04;;;;;;;10.05;2.97;;;10.40;99.90;;;;;;5049466;28;20100;-43
2023/03/31 03:37:30;;;;;;;7.57;2.53;;;10.40;99.90;;;;;;5048870;28;20021;-43
2023/03/31 03:39:55;;;;;;;12.38;2.72;;;10.30;99.90;;;;;;5048726;28;20127;-42
2023/03/31 03:42:21;;;;;;;9.73;2.80;;;10.30;99.90;;;;;;5048881;28;20025;-42
2023/03/31 03:44:47;;;;;;;8.68;2.50;;;10.30;99.90;;;;;;5048655;28;20021;-41
2023/03/31 03:47:13;;;;;;;12.43;2.50;;;10.30;99.90;;;;;;5046788;28;20302;-42
2023/03/31 03:49:38;;;;;;;6.93;2.33;;;10.30;99.90;;;;;;5047413;28;20091;-41
2023/03/31 03:52:04;;;;;;;9.93;2.85;;;10.30;99.90;;;;;;5048812;28;20021;-41
2023/03/31 03:54:30;;;;;;;11.07;3.22;;;10.30;99.90;;;;;;5049083;28;20537;-42
2023/03/31 03:56:56;;;;;;;6.10;1.92;;;10.20;99.90;;;;;;5048195;28;20021;-41
2023/03/31 03:59:21;;;;;;;7.53;2.50;;;10.20;99.90;;;;;;5048427;28;20025;-41
2023/03/31 04:01:47;;;;;;;7.13;1.95;;;10.20;99.90;;;;;;5048401;28;20442;-41
2023/03/31 04:04:13;;;;;;;9.85;1.75;;;10.20;99.90;;;;;;5048613;28;20467;-42
2023/03/31 04:06:38;;;;;;;5.80;2.28;;;10.20;99.90;;;;;;5048347;28;20013;-42
2023/03/31 04:09:04;;;;;;;12.63;2.75;;;10.20;99.90;;;;;;5048249;28;20406;-41
2023/03/31 04:11:30;;;;;;;7.88;2.90;;;10.20;99.90;;;;;;5049059;28;20078;-43
2023/03/31 04:13:55;;;;;;;13.38;2.58;;;10.20;99.90;;;;;;5048605;28;20056;-42
2023/03/31 04:16:21;;;;;;;5.72;1.77;;;10.20;99.90;;;;;;5046784;28;20374;-41
2023/03/31 04:18:47;;;;;;;5.70;2.25;;;10.20;99.90;;;;;;5048104;28;20025;-42
2023/03/31 04:21:21;;;;;;;10.00;2.30;;;10.20;99.90;;;;;;5048582;28;20013;-42
2023/03/31 04:23:48;;;;;;;6.15;2.45;;;10.30;99.90;;;;;;5048168;28;20017;-41
2023/03/31 04:26:15;;;;;;;11.45;1.73;;;10.30;99.90;;;;;;5048188;28;20074;-42
2023/03/31 04:28:45;;;;;;;12.07;3.13;;;10.30;99.90;;;;;;5047578;28;20077;-43
2023/03/31 04:31:15;;;;;;;7.90;2.97;;;10.30;99.90;;;;;;5045921;28;20044;-42
2023/03/31 04:33:44;;;;;;;9.95;2.05;;;10.40;99.90;;;;;;5048120;28;20028;-41
2023/03/31 04:36:16;;;;;;;6.25;1.90;;;10.40;99.90;;;;;;5047646;28;20021;-41
2023/03/31 04:38:49;;;;;;;5.95;1.92;;;10.40;99.90;;;;;;5046963;28;20036;-43
2023/03/31 04:41:15;;;;;;;6.30;1.48;;;10.40;99.90;;;;;;5044624;28;20032;-42
2023/03/31 04:43:41;;;;;;;7.40;1.83;;;10.30;99.90;;;;;;5056114;28;20079;-43
2023/03/31 04:46:07;;;;;;;4.03;1.70;;;10.30;99.90;;;;;;5046896;28;20064;-41
2023/03/31 04:48:33;;;;;;;5.22;1.77;;;10.40;99.90;;;;;;5048052;28;20337;-45
2023/03/31 04:50:58;;;;;;;6.13;2.03;;;10.30;99.90;;;;;;5048228;28;20507;-44
2023/03/31 04:53:25;;;;;;;8.15;2.20;;;10.30;99.90;;;;;;5047934;28;20060;-42
2023/03/31 04:55:50;;;;;;;10.65;2.15;;;10.30;99.90;;;;;;5047977;28;20024;-42
2023/03/31 04:58:16;;;;;;;6.80;1.77;;;10.30;99.90;;;;;;5047971;28;20394;-43
2023/03/31 05:00:41;;;;;;;10.30;2.42;;;10.30;99.90;;;;;;5048033;28;20095;-41
2023/03/31 05:03:08;;;;;;;5.22;1.67;;;10.20;99.90;;;;;;5046976;28;20021;-41
2023/03/31 05:05:33;;;;;;;5.43;1.92;;;10.20;99.90;;;;;;5048126;28;20394;-43
2023/03/31 05:07:59;;;;;;;6.03;1.75;;;10.20;99.90;;;;;;5047726;28;20025;-45
2023/03/31 05:10:25;;;;;;;6.22;1.90;;;10.20;99.90;;;;;;5047484;28;20304;-40
2023/03/31 05:12:50;;;;;;;10.60;2.10;;;10.20;99.90;;;;;;5047541;28;20498;-41
2023/03/31 05:15:16;;;;;;;12.65;2.40;;;10.20;99.90;;;;;;5048133;28;20045;-42
2023/03/31 05:17:41;;;;;;;11.38;2.03;;;10.10;99.90;;;;;;5047418;28;20021;-42
2023/03/31 05:20:08;;;;;;;8.23;1.70;;;10.20;99.90;;;;;;5047954;28;20071;-41
2023/03/31 05:22:38;;;;;;;8.30;2.00;;;10.20;99.90;;;;;;5047824;28;20021;-41
2023/03/31 05:25:06;;;;;;;9.65;1.65;;;10.10;99.90;;;;;;5046206;28;20474;-42
2023/03/31 05:27:32;;;;;;;6.70;1.73;;;10.20;99.90;;;;;;5047567;28;20025;-41
2023/03/31 05:29:58;;;;;;;10.82;1.77;;;10.20;99.90;;;;;;5047742;28;20026;-41
2023/03/31 05:32:24;;;;;;;8.02;2.58;;;10.20;99.90;;;;;;5047723;28;20556;-41
2023/03/31 05:34:51;;;;;;;7.40;2.28;;;10.20;99.90;;;;;;5048412;28;20024;-42
2023/03/31 05:37:18;;;;;;;9.57;2.20;;;10.20;99.90;;;;;;5051274;28;20021;-41
2023/03/31 05:39:44;;;;;;;8.00;2.58;;;10.20;99.90;;;;;;5051135;28;20079;-42
2023/03/31 05:42:09;;;;;;;10.05;2.63;;;10.30;99.90;;;;;;5051030;28;20032;-43
2023/03/31 05:44:35;;;;;;;12.15;2.10;;;10.30;99.90;;;;;;5051305;28;20101;-43
2023/03/31 05:47:01;;;;;;;8.55;1.92;;;10.30;99.90;;;;;;5050694;28;20040;-42
2023/03/31 05:49:26;;;;;;;4.53;1.60;;;10.40;99.90;;;;;;5051493;28;20025;-41
2023/03/31 05:51:52;;;;;;;5.97;2.15;;;10.40;99.90;;;;;;5050881;28;20428;-42
2023/03/31 05:54:18;;;;;;;7.03;2.08;;;10.50;99.90;;;;;;5050559;28;20541;-43
2023/03/31 05:56:44;;;;;;;9.30;2.35;;;10.50;99.90;;;;;;5050464;28;20021;-43
2023/03/31 05:59:09;;;;;;;8.90;1.85;;;10.50;99.90;;;;;;5050967;28;20048;-42
2023/03/31 06:01:35;;;;;;;7.88;2.15;;;10.50;99.90;;;;;;5051106;28;20404;-43
2023/03/31 06:04:01;;;;;;;8.15;2.20;;;10.50;99.90;;;;;;5050908;28;20313;-41
2023/03/31 06:06:26;;;;;;;6.03;2.03;;;10.50;99.90;;;;;;5049476;28;20123;-42
2023/03/31 06:08:52;;;;;;;7.32;1.80;;;10.60;99.90;;;;;;5050104;28;20017;-44
2023/03/31 06:11:20;;;;;;;7.32;1.85;;;10.60;99.90;;;;;;5050854;28;20017;-43
2023/03/31 06:13:46;;;;;;;7.22;1.85;;;10.60;99.90;;;;;;5050740;28;20021;-42
2023/03/31 06:16:12;;;;;;;6.25;2.20;;;10.60;99.90;;;;;;5049867;28;20017;-43
2023/03/31 06:18:39;;;;;;;7.10;2.15;;;10.60;99.90;;;;;;5050607;28;20031;-41
2023/03/31 06:21:05;;;;;;;7.38;1.83;;;10.60;99.90;;;;;;5050658;28;20040;-43
2023/03/31 06:23:31;;;;;;;8.50;1.92;;;10.60;99.90;;;;;;5050483;28;20062;-43
2023/03/31 06:26:02;;;;;;;6.45;1.60;;;10.70;99.90;;;;;;5050245;28;20108;-41
2023/03/31 06:28:28;;;;;;;8.38;1.67;;;10.90;99.90;;;;;;5050474;28;20473;-43
2023/03/31 06:31:01;;;;;;;12.65;2.75;;;10.90;99.90;;;;;;5050492;28;20100;-42
2023/03/31 06:33:27;;;;;;;11.30;2.53;;;10.90;99.90;;;;;;5050781;28;20669;-42
2023/03/31 06:35:55;;;;;;;7.57;2.00;;;10.80;99.90;;;;;;5050140;28;20041;-42
2023/03/31 06:38:21;;;;;;;5.93;1.75;;;10.90;99.90;;;;;;5049978;28;20029;-43
2023/03/31 06:40:46;;;;;;;7.45;2.25;;;10.90;99.90;;;;;;5050442;28;20017;-42
2023/03/31 06:43:12;;;;;;;7.93;2.10;;;11.00;99.90;;;;;;5048042;28;20013;-42
2023/03/31 06:45:37;;;;;;;5.82;1.83;;;11.00;99.90;;;;;;5048404;28;20120;-43
2023/03/31 06:48:03;;;;;;;4.63;1.73;;;11.00;99.90;;;;;;5048734;28;20040;-42
2023/03/31 06:50:29;;;;;;;6.72;1.75;;;11.00;99.90;;;;;;5050180;28;20014;-43
2023/03/31 06:52:54;;;;;;;8.45;1.95;;;11.10;99.90;;;;;;5049619;28;20052;-42
2023/03/31 06:55:20;;;;;;;4.00;1.50;;;11.20;99.90;;;;;;5045317;28;20021;-42
2023/03/31 06:57:45;;;;;;;7.70;1.58;;;11.20;99.90;;;;;;5049106;28;20029;-42
2023/03/31 07:00:12;;;;;;;6.35;1.70;;;11.20;99.90;;;;;;5050064;28;20025;-43
2023/03/31 07:02:37;;;;;;;8.30;2.08;;;11.40;99.90;;;;;;5050211;28;20542;-42
2023/03/31 07:05:03;;;;;;;6.35;1.65;;;11.40;99.90;;;;;;5050222;28;20025;-43
2023/03/31 07:07:33;;;;;;;8.65;2.00;;;11.50;99.90;;;;;;5048460;28;20215;-42
2023/03/31 07:09:58;;;;;;;11.80;1.50;;;11.60;99.90;;;;;;5049409;28;20052;-42
2023/03/31 07:12:24;;;;;;;3.97;1.25;;;11.80;99.90;;;;;;5049590;28;20471;-42
2023/03/31 07:14:49;;;;;;;6.50;3.30;;;11.80;99.90;;;;;;5048425;28;20174;-41
2023/03/31 07:17:16;;;;;;;8.45;1.70;;;11.80;99.90;;;;;;5048908;28;20013;-41
2023/03/31 07:19:46;;;;;;;5.93;1.83;;;11.80;99.90;;;;;;5049687;28;20051;-43
2023/03/31 07:22:13;;;;;;;3.92;1.20;;;11.90;99.90;;;;;;5049360;28;20271;-42
2023/03/31 07:24:39;;;;;;;5.57;1.65;;;11.90;99.90;;;;;;5049442;28;20363;-42
2023/03/31 07:27:05;;;;;;;6.10;1.95;;;11.90;99.90;;;;;;5048919;28;20021;-42
2023/03/31 07:29:30;;;;;;;4.88;1.40;;;11.90;99.90;;;;;;5049866;28;20013;-42
2023/03/31 07:31:56;;;;;;;4.90;1.45;;;12.00;99.90;;;;;;5049246;28;20031;-42
2023/03/31 07:34:21;;;;;;;7.78;1.55;;;12.00;99.90;;;;;;5049223;28;20044;-43
2023/03/31 07:36:47;;;;;;;7.78;2.13;;;11.90;99.90;;;;;;5048939;28;20091;-42
2023/03/31 07:39:12;;;;;;;5.57;1.50;;;12.00;99.90;;;;;;5048251;28;20025;-42
2023/03/31 07:41:38;;;;;;;7.88;1.85;;;12.00;99.90;;;;;;5049211;28;20436;-42
2023/03/31 07:44:04;;;;;;;6.90;1.70;;;12.00;99.90;;;;;;5047958;28;20020;-42
2023/03/31 07:46:29;;;;;;;5.75;1.40;;;12.10;99.90;;;;;;5048445;28;20100;-40
2023/03/31 07:48:57;;;;;;;5.85;2.08;;;12.10;99.90;;;;;;5048944;28;20028;-41
2023/03/31 07:51:24;;;;;;;6.00;1.75;;;12.30;99.90;;;;;;5048899;28;20032;-41
2023/03/31 07:53:51;;;;;;;3.85;1.30;;;12.20;99.90;;;;;;5047636;28;20048;-41
2023/03/31 07:56:21;;;;;;;8.68;1.88;;;12.20;99.90;;;;;;5048766;28;20607;-41
2023/03/31 07:58:47;;;;;;;6.13;1.83;;;12.20;99.90;;;;;;5048667;28;20078;-41
2023/03/31 08:01:17;;;;;;;5.72;1.33;;;12.20;99.90;;;;;;5048376;28;20033;-42
2023/03/31 08:03:45;;;;;;;5.68;1.63;;;12.30;99.90;;;;;;5047323;28;20112;-41
2023/03/31 08:06:11;;;;;;;7.13;1.33;;;12.10;99.90;;;;;;5048478;28;20025;-41
2023/03/31 08:08:37;;;;;;;3.97;1.30;;;12.10;99.90;;;;;;5048992;28;21023;-41
2023/03/31 08:11:03;;;;;;;3.25;1.65;;;12.10;99.90;;;;;;5048835;28;20013;-42
2023/03/31 08:13:29;;;;;;;6.75;1.30;;;12.10;99.90;;;;;;5048586;28;20498;-41
2023/03/31 08:15:55;;;;;;;7.60;2.30;;;12.20;99.90;;;;;;5048152;28;20033;-41
2023/03/31 08:18:21;;;;;;;10.23;1.73;;;12.20;99.90;;;;;;5048041;28;20025;-42
2023/03/31 08:20:48;;;;;;;6.78;1.88;;;12.00;99.90;;;;;;5063869;28;20508;-41
2023/03/31 08:23:14;;;;;;;4.88;1.27;;;12.00;99.90;;;;;;5055636;28;20025;-42
2023/03/31 08:25:40;;;;;;;6.93;2.28;;;12.10;99.90;;;;;;5047144;28;20028;-43
2023/03/31 08:28:09;;;;;;;5.35;1.73;;;12.10;99.90;;;;;;5048506;28;20040;-41
2023/03/31 08:30:36;;;;;;;8.68;2.05;;;12.00;99.90;;;;;;5046814;28;20525;-41
2023/03/31 08:33:02;;;;;;;6.72;2.30;;;12.00;99.90;;;;;;5048504;28;20130;-42
2023/03/31 08:35:28;;;;;;;9.18;1.83;;;11.90;99.90;;;;;;5048082;28;20067;-41
2023/03/31 08:37:53;;;;;;;6.00;1.80;;;11.90;99.90;;;;;;5046796;28;20132;-43
2023/03/31 08:40:23;;;;;;;10.27;4.00;;;11.90;99.90;;;;;;5048763;28;20024;-42
2023/03/31 08:42:56;;;;;;;7.18;1.70;;;11.90;99.90;;;;;;5048403;28;20441;-41
2023/03/31 08:45:28;;;;;;;4.00;1.75;;;11.90;99.90;;;;;;5048085;28;20090;-41
2023/03/31 08:47:59;;;;;;;7.70;2.35;;;11.90;99.90;;;;;;5048001;28;20078;-40
2023/03/31 08:50:32;;;;;;;7.60;2.15;;;11.80;99.90;;;;;;5048524;28;20020;-40
2023/03/31 08:53:06;;;;;;;4.68;1.75;;;11.80;99.90;;;;;;5046998;28;20033;-43
2023/03/31 08:55:49;;;;;;;4.60;1.58;;;11.70;99.90;;;;;;5048289;28;20100;-41
2023/03/31 08:58:36;;;;;;;6.28;2.15;;;11.70;99.90;;;;;;5048308;28;20021;-42
2023/03/31 09:01:18;;;;;;;3.45;1.50;;;11.70;99.90;;;;;;5047963;28;20408;-41
2023/03/31 09:03:49;;;;;;;3.78;1.70;;;11.80;99.90;;;;;;5048692;28;20151;-41
2023/03/31 09:06:33;;;;;;;8.60;2.15;;;11.70;99.90;;;;;;5048377;28;20017;-42
2023/03/31 09:09:02;;;;;;;3.33;1.65;;;11.80;99.90;;;;;;5047942;28;20017;-41
2023/03/31 09:11:35;;;;;;;5.57;1.80;;;11.80;99.90;;;;;;5051122;28;20029;-41
2023/03/31 09:14:16;;;;;;;7.15;1.77;;;12.00;99.90;;;;;;5051539;28;20035;-42
2023/03/31 09:17:11;;;;;;;4.75;1.70;;;12.10;99.90;;;;;;5051912;28;20259;-41
2023/03/31 09:19:43;;;;;;;4.80;1.77;;;12.10;99.90;;;;;;5051885;28;20029;-41
2023/03/31 09:22:16;;;;;;;6.55;1.75;;;12.10;99.90;;;;;;5050354;28;20021;-41
2023/03/31 09:24:46;;;;;;;7.28;1.60;;;12.10;99.90;;;;;;5051951;28;20017;-42
2023/03/31 09:27:13;;;;;;;4.28;1.50;;;12.00;99.90;;;;;;5050846;28;20537;-41
2023/03/31 09:30:00;;;;;;;6.40;1.88;;;12.10;99.90;;;;;;5051222;28;20528;-41
2023/03/31 09:32:29;;;;;;;11.23;1.98;;;12.20;99.90;;;;;;5044227;28;20043;-41
2023/03/31 09:35:15;;;;;;;6.30;1.95;;;12.20;99.90;;;;;;5051781;28;20099;-42
2023/03/31 09:37:41;;;;;;;6.22;2.58;;;12.20;99.90;;;;;;5051415;28;20027;-41
2023/03/31 09:40:13;;;;;;;5.15;2.00;;;12.20;99.90;;;;;;5051324;28;20025;-41
2023/03/31 09:42:38;;;;;;;5.60;1.77;;;12.20;99.90;;;;;;5051317;28;20036;-41
2023/03/31 09:45:04;;;;;;;5.10;1.45;;;12.20;99.90;;;;;;5050944;28;20021;-41
2023/03/31 09:47:41;;;;;;;6.85;1.58;;;12.30;99.90;;;;;;5050819;28;20027;-42
2023/03/31 09:50:08;;;;;;;6.72;2.00;;;12.20;99.90;;;;;;5051631;28;20105;-41
2023/03/31 09:53:03;;;;;;;6.32;1.60;;;12.30;99.90;;;;;;5051160;28;20021;-42
2023/03/31 09:55:43;;;;;;;3.65;1.48;;;12.30;99.90;;;;;;5050473;28;20074;-44
2023/03/31 09:58:14;;;;;;;3.17;1.27;;;12.30;99.90;;;;;;5050779;28;20025;-42
2023/03/31 10:00:41;;;;;;;;;;;12.30;99.90;;;;;;5050959;28;20079;-41
2023/03/31 10:03:09;;;;;;;2.45;1.45;;;12.20;99.90;;;;;;5050750;28;20391;-42
2023/03/31 10:05:49;;;;;;;6.03;1.90;;;12.30;99.90;;;;;;5051184;28;20024;-42
2023/03/31 10:08:26;;;;;;;7.68;1.60;;;12.30;99.90;;;;;;5050658;28;20099;-43
2023/03/31 10:10:54;;;;;;;6.57;1.45;;;12.20;99.90;;;;;;5051218;28;20013;-41
2023/03/31 10:13:28;;;;;;;3.15;1.65;;;12.10;99.90;;;;;;5050650;28;20309;-43
2023/03/31 10:16:33;;;;;;;4.55;1.20;;;12.10;99.90;;;;;;5049107;28;20028;-41
2023/03/31 10:19:21;;;;;;;6.82;1.83;;;12.10;99.90;;;;;;5042190;28;20065;-41
2023/03/31 10:21:59;;;;;;;4.70;1.20;;;12.00;99.90;;;;;;5050505;28;20091;-41
2023/03/31 10:24:26;;;;;;;4.10;1.38;;;12.00;99.90;;;;;;5050751;28;20463;-41
2023/03/31 10:26:54;;;;;;;4.03;1.40;;;11.90;99.90;;;;;;5049790;28;20037;-41
2023/03/31 10:29:30;;;;;;;6.43;1.50;;;11.70;99.90;;;;;;5050567;28;20105;-42
2023/03/31 10:32:03;;;;;;;3.58;1.17;;;11.60;99.90;;;;;;5050599;28;20214;-41
2023/03/31 10:34:29;;;;;;;3.63;1.38;;;11.60;99.90;;;;;;5049415;28;20029;-41
2023/03/31 10:36:55;;;;;;;6.70;1.83;;;11.50;99.90;;;;;;5050132;28;20107;-41
2023/03/31 10:39:28;;;;;;;4.78;1.70;;;11.40;99.90;;;;;;5058980;28;20120;-41
2023/03/31 10:41:53;;;;;;;5.75;1.27;;;11.30;99.90;;;;;;5050355;28;20025;-42
2023/03/31 10:44:35;;;;;;;6.35;1.33;;;11.30;99.90;;;;;;5048668;28;20009;-41
2023/03/31 10:47:13;;;;;;;6.65;2.15;;;11.30;99.90;;;;;;5049931;28;20372;-41
2023/03/31 10:49:40;;;;;;;6.45;2.13;;;11.20;99.90;;;;;;5050621;28;20021;-42
2023/03/31 10:52:21;;;;;;;7.53;1.58;;;11.20;99.90;;;;;;5050354;28;20033;-43
2023/03/31 10:54:57;;;;;;;7.75;1.80;;;11.20;99.90;;;;;;5050427;28;20055;-44
2023/03/31 10:57:52;;;;;;;4.30;1.50;;;11.10;99.90;;;;;;5041516;28;20670;-41
2023/03/31 11:00:45;;;;;;;6.13;2.03;;;10.90;99.90;;;;;;5049544;28;20025;-41
2023/03/31 11:03:48;;;;;;;5.53;2.38;;;10.90;99.90;;;;;;5050088;28;20126;-43
2023/03/31 11:06:47;;;;;;;4.07;1.52;;;10.90;99.90;;;;;;5049705;28;20477;-42
2023/03/31 11:09:35;;;;;;;2.83;1.60;;;10.80;99.90;;;;;;5049322;28;20091;-42
2023/03/31 11:12:31;;;;;;;6.00;2.10;;;10.70;99.90;;;;;;5066466;28;20259;-42
2023/03/31 11:15:24;;;;;;;6.18;2.72;;;10.60;99.90;;;;;;5049541;28;20060;-42
2023/03/31 11:18:26;;;;;;;6.05;1.70;;;10.40;99.90;;;;;;5042911;28;20030;-42
2023/03/31 11:21:25;;;;;;;5.22;2.13;;;10.40;99.90;;;;;;5045375;28;20158;-44
2023/03/31 11:24:18;;;;;;;7.05;2.45;;;10.30;99.90;;;;;;5046203;28;20033;-42
2023/03/31 11:26:49;;;;;;;5.80;1.60;;;10.30;99.90;;;;;;5048191;28;20021;-44
2023/03/31 11:29:30;;;;;;;3.95;2.28;;;10.30;99.90;;;;;;5048800;28;20024;-43
2023/03/31 11:32:04;;;;;;;5.10;1.70;;;10.20;99.90;;;;;;5049132;28;20521;-43
2023/03/31 11:34:39;;;;;;;4.88;1.65;;;10.10;99.90;;;;;;5048497;28;20474;-44
2023/03/31 11:37:14;;;;;;;9.07;2.75;;;10.20;99.90;;;;;;5048420;28;20056;-42
2023/03/31 11:40:15;;;;;;;5.25;2.20;;;10.10;99.90;;;;;;5045547;28;20021;-42
2023/03/31 11:42:50;;;;;;;7.65;1.98;;;10.00;99.90;;;;;;5026291;28;20040;-41
2023/03/31 11:45:21;;;;;;;6.10;2.10;;;9.90;99.90;;;;;;5048114;28;20116;-42
2023/03/31 11:47:51;;;;;;;7.13;2.28;;;9.90;99.90;;;;;;5048669;28;20465;-42
2023/03/31 11:50:23;;;;;;;10.63;2.65;;;9.90;99.90;;;;;;5048810;28;20033;-42
2023/03/31 11:53:17;;;;;;;4.15;2.15;;;9.90;99.90;;;;;;5048762;28;20100;-43
2023/03/31 11:55:47;;;;;;;6.25;1.90;;;9.90;99.90;;;;;;5049028;28;20044;-42
2023/03/31 11:58:20;;;;;;;6.93;2.50;;;9.80;99.90;;;;;;5049027;28;20398;-42
2023/03/31 12:00:55;;;;;;;10.98;2.70;;;9.80;99.90;;;;;;5049044;28;20030;-43
2023/03/31 12:03:42;;;;;;;6.07;2.30;;;9.80;99.90;;;;;;5048721;28;20021;-42
2023/03/31 12:06:18;;;;;;;5.95;2.40;;;9.70;99.90;;;;;;5048193;28;20390;-43
2023/03/31 12:09:10;;;;;;;5.35;2.10;;;9.70;99.90;;;;;;5048355;28;20013;-44
2023/03/31 12:11:40;;;;;;;6.35;2.60;;;9.70;99.90;;;;;;5048754;28;20031;-46
2023/03/31 12:14:20;;;;;;;5.60;2.08;;;9.70;99.90;;;;;;5049139;28;20142;-45
2023/03/31 12:16:51;;;;;;;4.25;2.20;;;9.70;99.90;;;;;;5048100;28;20166;-42
2023/03/31 12:19:21;;;;;;;5.10;2.35;;;9.70;99.90;;;;;;5048644;28;20169;-42
2023/03/31 12:21:51;;;;;;;6.28;2.40;;;9.80;99.90;;;;;;5049400;28;20025;-43
2023/03/31 12:24:17;;;;;;;6.65;2.88;;;9.60;99.90;;;;;;5048352;28;20313;-41
2023/03/31 12:26:47;;;;;;;7.40;2.20;;;9.60;99.90;;;;;;5047920;28;20024;-45
2023/03/31 12:29:32;;;;;;;6.45;2.22;;;9.60;99.90;;;;;;5049149;28;20029;-41
2023/03/31 12:32:04;;;;;;;6.95;2.35;;;9.60;99.90;;;;;;5048868;28;20074;-42
2023/03/31 12:34:31;;;;;;;4.03;2.28;;;9.70;99.90;;;;;;5048797;28;20056;-42
2023/03/31 12:37:22;;;;;;;6.22;2.30;;;9.80;99.90;;;;;;5048110;28;20506;-42
2023/03/31 12:40:11;;;;;;;4.35;2.08;;;9.80;99.90;;;;;;5048462;28;20021;-44
2023/03/31 12:43:12;;;;;;;9.25;2.60;;;9.80;99.90;;;;;;5048248;28;20063;-41
2023/03/31 12:46:18;;;;;;;5.43;2.15;;;9.70;99.90;;;;;;5050119;28;20048;-43
2023/03/31 12:48:55;;;;;;;7.40;2.17;;;9.70;99.90;;;;;;5049268;28;20079;-44
2023/03/31 12:51:56;;;;;;;4.18;2.10;;;9.60;99.90;;;;;;5051325;28;20029;-41
2023/03/31 12:54:41;;;;;;;5.22;2.53;;;9.80;99.90;;;;;;5052206;28;20041;-42
2023/03/31 12:57:15;;;;;;;11.23;2.42;;;9.90;99.90;;;;;;5048919;28;20040;-42
2023/03/31 12:59:43;;;;;;;4.82;2.55;;;9.80;99.90;;;;;;5052142;28;20025;-42
2023/03/31 13:02:08;;;;;;;5.97;2.60;;;9.70;99.90;;;;;;5052011;28;20071;-42
2023/03/31 13:04:38;;;;;;;7.43;3.08;;;9.70;99.90;;;;;;5052109;28;20020;-44
2023/03/31 13:07:20;;;;;;;5.63;2.63;;;9.70;99.90;;;;;;5051870;28;20021;-41
2023/03/31 13:09:47;;;;;;;5.47;2.60;;;9.90;99.90;;;;;;5052309;28;20470;-43
2023/03/31 13:12:22;;;;;;;6.10;2.80;;;10.00;99.90;;;;;;5051755;28;20053;-41